Sorell, Australia
Current Conditions -  °F | °C
As of 2:00 AM on Thursday 23 Oct 2014 (Local Time) from YMHB Reporting Station
Broken Clouds Broken Clouds  
Wind Chill: 54°   Ceiling: 1500
Heat Index: 54°   Visibility: 6mi
Dew Point: 48°   Wind: 16mph
Humidity: 82%   Direction: 190°S
Pressure: 30.15"   Gusts: NA
Location:  42.78°S, 147.56°E
Report Text: YMHB 221500Z 19014KT 9999 BKN015 12/09 Q1021
Loading
Personal Weather Stations






























Interactive Weather Map
Tropical Storm Tracking
New forecast layout! Learn more

10-Day Weather Forecast

Advertisements
Track Severe Weather on mobile